Ana Sayfa
METAR-TAF:

METAR-TAF

Havaalanları :

Avenger Field

Sweetwater, Teksas, Amerika Birleşik Devletleri

Enlem: 32-28-02N, Boylam: 100-27-59W, yükseklik: 725 m

Güncel hava durumu gözlemi

Rapor saat 20:35 UTC de 34 dakika önce yapıldı.
Rüzgar doğudan 8 kt, kuzeydoğu ve doğu/güneydoğu arasında değişken
Sıcaklık 29°C
Nem 31%
Basınç 1021 hPa
Görüş mesafesi: 16.1 km
Açık gökyüzü

METAR: KSWW 312035Z AUTO 08008KT 050V110 10SM CLR 29/10 A3016 RMK AO2 T02930101

Saat: 16:09 (21:09 UTC)


TAF: eksik

4.000'den fazla havaalanı için hava durumu gözlemleri ve tahminleri (METAR ve TAF raporları).

Kullanılabilir istasyonlar harita üzerinde sarı ve kırmızı noktalarla gösterilir.

İstasyonun adını görmek için fareyi noktanın üzerinde gezdirin.

Sonrasında hava gözlem ve tahminlerini görmek için tıklayın.

Haritayı değiştirmek için: yaklaştırmak için siyah artı işaretli yeşil düğmeye ve uzaklaştırmak için de eksi işaretli düğmeye hızla tıklayın; bitişik haritalar için yeşil okları kullanın.


METAR-TAF: